Lexington, KY

2:43 PM EDT on March 28, 2017 (GMT -0400)
Lansdowne Merrick | | Change Station

Elev 994 ft 38.00 °N, 84.49 °W | Updated 21 minutes ago

Overcast
Overcast
61.2 °F
Feels Like 61.2 °F
N
5.0
Wind Variable Wind from North
Gusts 11.8 mph

Today
High -- | Low -- °F
--% Chance of Precip.
Yesterday
High -- | Low -- °F
Precip. -- in
Pressure 30.00 in
Visibility 10.0 miles
Clouds Few 700 ft
Mostly Cloudy 2200 ft
Overcast 2800 ft
Dew Point 56 °F
Humidity 82%
Rainfall 0.02 in
Snow Depth Not available.
7:28 AM 7:57 PM
New Moon, 1% visible
SPECI KLEX 281820Z 34009KT 10SM FEW007 BKN022 OVC028 16/12 A3000 RMK AO2 T01560122
Pressure 30.00 in
Visibility 10.0 miles
Clouds Few 700 ft
Mostly Cloudy 2200 ft
Overcast 2800 ft
Dew Point 56 °F
Humidity 82%
Rainfall 0.02 in
Snow Depth Not available.
7:28 AM 7:57 PM
New Moon, 1% visible
SPECI KLEX 281820Z 34009KT 10SM FEW007 BKN022 OVC028 16/12 A3000 RMK AO2 T01560122

Get Severe Weather Alerts

Thanks for signing up!

Be on the lookout for a verification email in your inbox.

You'll start receiving the daily forecast at 8 AM.

×

10-Day Weather Forecast

Almanac

Astronomy

Mar. 28, 2017 Rise Set
Actual Time
Civil Twilight
Nautical Twilight
Astronomical Twilight
Moon
Length of Visible Light
Length of Day
Tomorrow will be .
, % of the Moon is Illuminated

Today's Extremes

State Highs State Lows

Community

WunderPhotos

Upload Photos

1,962,540 photos uploaded!

WunderBlog® & News

Nearby

Air Quality

  Air Quality AQ Index Pollutant
Not available.

Snow Depth

Station Depth Elevation

Earthquake Activity

City Distance Mag. Time & Date
Minimum magnitude displayed is 2.5.

Earthquake Activity

City Distance Mag. Time & Date
Minimum magnitude displayed is 2.5.

Coastal Water Temperatures

Place Temperature

Stations

Nearby Weather Stations

Station Location Temp. Windchill Dew Point Humidity Wind Precip. Elev Updated Type
                   

Watches & Warnings

There are currently no watches in effect.